createdAt,value
2022-09-18T00:01:22.329Z,2.10
2022-09-18T00:03:48.907Z,1.90
2022-09-18T00:06:19.399Z,2.30
2022-09-18T00:08:47.999Z,1.70
2022-09-18T00:11:15.920Z,1.80
2022-09-18T00:13:42.935Z,2.10
2022-09-18T00:16:12.294Z,1.90
2022-09-18T00:18:39.793Z,1.70
2022-09-18T00:21:15.812Z,1.50
2022-09-18T00:23:42.925Z,1.90
2022-09-18T00:26:11.614Z,1.90
2022-09-18T00:28:38.361Z,2.30
2022-09-18T00:31:15.621Z,2.30
2022-09-18T00:33:42.565Z,2.20
2022-09-18T00:36:13.686Z,2.90
2022-09-18T00:38:41.355Z,2.90
2022-09-18T00:41:23.558Z,2.20
2022-09-18T00:44:00.880Z,2.40
2022-09-18T00:46:36.174Z,2.30
2022-09-18T00:49:20.929Z,2.70
2022-09-18T00:51:49.756Z,2.00
2022-09-18T00:54:32.799Z,2.20
2022-09-18T00:59:31.220Z,2.50
2022-09-18T01:01:59.344Z,2.60
2022-09-18T01:04:27.310Z,1.70
2022-09-18T01:06:56.582Z,1.90
2022-09-18T01:09:53.611Z,2.20
2022-09-18T01:12:43.126Z,2.10
2022-09-18T01:15:20.209Z,1.90
2022-09-18T01:18:06.403Z,1.80
2022-09-18T01:20:58.914Z,1.90
2022-09-18T01:23:51.758Z,1.70
2022-09-18T01:26:28.510Z,2.10
2022-09-18T01:29:17.996Z,1.70
2022-09-18T01:31:53.439Z,1.70
2022-09-18T01:34:25.748Z,2.10
2022-09-18T01:37:08.130Z,2.50
2022-09-18T01:39:43.588Z,2.00
2022-09-18T01:42:11.181Z,1.80
2022-09-18T01:44:40.213Z,1.70
2022-09-18T01:47:11.167Z,1.70
2022-09-18T01:49:42.515Z,2.10
2022-09-18T01:52:31.089Z,1.90
2022-09-18T01:54:58.315Z,1.80
2022-09-18T01:57:52.596Z,2.00
2022-09-18T02:00:19.690Z,1.90
2022-09-18T02:02:58.374Z,2.00
2022-09-18T02:05:33.247Z,2.40
2022-09-18T02:08:20.047Z,2.00
2022-09-18T02:11:00.510Z,2.10
2022-09-18T02:13:34.076Z,1.80
2022-09-18T02:16:06.236Z,2.30
2022-09-18T02:18:40.332Z,2.00
2022-09-18T02:21:10.069Z,2.10
2022-09-18T02:23:38.650Z,2.30
2022-09-18T02:26:06.733Z,2.20
2022-09-18T02:28:34.323Z,2.40
2022-09-18T02:31:03.971Z,1.80
2022-09-18T02:33:34.893Z,2.00
2022-09-18T02:36:39.206Z,2.00
2022-09-18T02:39:34.446Z,2.20
2022-09-18T02:42:30.103Z,1.90
2022-09-18T02:45:03.691Z,1.60
2022-09-18T02:48:19.654Z,1.90
2022-09-18T02:51:35.861Z,2.20
2022-09-18T02:54:11.492Z,1.90
2022-09-18T02:56:52.752Z,1.80
2022-09-18T02:59:36.603Z,2.00
2022-09-18T03:02:03.854Z,2.00
2022-09-18T03:04:30.474Z,2.10
2022-09-18T03:06:57.538Z,2.10
2022-09-18T03:09:24.289Z,2.80
2022-09-18T03:11:51.190Z,1.80
2022-09-18T03:14:17.782Z,2.00
2022-09-18T03:16:44.238Z,2.00
2022-09-18T03:19:11.543Z,1.80
2022-09-18T03:21:38.575Z,2.30
2022-09-18T03:24:05.634Z,1.90
2022-09-18T03:26:32.099Z,1.90
2022-09-18T03:28:58.649Z,2.10
2022-09-18T03:31:25.391Z,2.20
2022-09-18T03:33:51.912Z,2.10
2022-09-18T03:36:18.328Z,2.10
2022-09-18T03:38:44.669Z,2.30
2022-09-18T03:41:11.090Z,2.60
2022-09-18T03:43:37.464Z,2.60
2022-09-18T03:46:03.983Z,2.60
2022-09-18T03:48:30.395Z,2.90
2022-09-18T03:50:56.730Z,2.70
2022-09-18T03:53:23.266Z,2.80
2022-09-18T03:55:50.681Z,2.90
2022-09-18T03:58:17.100Z,3.10
2022-09-18T04:00:44.512Z,3.00
2022-09-18T04:03:10.973Z,3.30
2022-09-18T04:05:37.356Z,3.00
2022-09-18T04:08:04.723Z,3.20
2022-09-18T04:10:35.359Z,3.80
2022-09-18T04:13:02.398Z,3.70
2022-09-18T04:15:28.852Z,3.20
2022-09-18T04:17:55.315Z,3.40
2022-09-18T04:20:21.921Z,3.30
2022-09-18T04:22:48.356Z,3.30
2022-09-18T04:25:14.972Z,3.60
2022-09-18T04:27:41.610Z,4.00
2022-09-18T04:30:09.162Z,3.50
2022-09-18T04:32:35.556Z,3.40
2022-09-18T04:35:01.966Z,3.30
2022-09-18T04:37:28.548Z,3.60
2022-09-18T04:39:54.877Z,3.50
2022-09-18T04:42:21.259Z,3.30
2022-09-18T04:44:47.768Z,3.10
2022-09-18T04:47:14.310Z,3.90
2022-09-18T04:49:40.793Z,4.00
2022-09-18T04:52:07.289Z,4.00
2022-09-18T04:54:33.960Z,4.00
2022-09-18T04:57:00.385Z,4.00
2022-09-18T04:59:27.066Z,4.60
2022-09-18T05:01:53.468Z,3.90
2022-09-18T05:04:20.037Z,4.00
2022-09-18T05:06:46.513Z,4.40
2022-09-18T05:09:13.073Z,4.30
2022-09-18T05:11:39.515Z,4.30
2022-09-18T05:14:05.902Z,4.20
2022-09-18T05:16:34.565Z,4.00
2022-09-18T05:19:00.910Z,4.00
2022-09-18T05:21:27.404Z,4.80
2022-09-18T05:23:53.727Z,4.20
2022-09-18T05:26:20.092Z,4.60
2022-09-18T05:28:50.240Z,5.00
2022-09-18T05:31:16.751Z,4.90
2022-09-18T05:33:43.488Z,5.00
2022-09-18T05:36:10.290Z,4.90
2022-09-18T05:38:36.677Z,4.80
2022-09-18T05:41:03.677Z,5.00
2022-09-18T05:43:30.536Z,4.90
2022-09-18T05:45:57.329Z,5.00
2022-09-18T05:48:23.691Z,5.20
2022-09-18T05:50:51.367Z,5.40
2022-09-18T05:53:20.637Z,6.00
2022-09-18T05:55:47.991Z,5.00
2022-09-18T05:58:17.179Z,5.50
2022-09-18T06:03:51.187Z,5.40
2022-09-18T06:06:17.845Z,5.30
2022-09-18T06:08:44.180Z,4.90
2022-09-18T06:11:10.581Z,5.70
2022-09-18T06:13:37.249Z,5.00
2022-09-18T06:16:03.825Z,4.90
2022-09-18T06:18:30.605Z,5.20
2022-09-18T06:20:58.572Z,5.40
2022-09-18T06:23:27.949Z,5.50
2022-09-18T06:26:04.067Z,5.00
2022-09-18T06:28:31.835Z,5.30
2022-09-18T06:30:59.791Z,5.90
2022-09-18T06:33:28.671Z,5.70
2022-09-18T06:35:55.543Z,5.10
2022-09-18T06:38:21.977Z,5.40
2022-09-18T06:40:50.329Z,5.40
2022-09-18T06:43:17.740Z,6.00
2022-09-18T06:45:51.224Z,5.30
2022-09-18T06:48:17.681Z,5.50
2022-09-18T06:50:44.141Z,5.40
2022-09-18T06:53:12.781Z,5.80
2022-09-18T06:55:39.318Z,6.00
2022-09-18T06:58:05.785Z,5.00
2022-09-18T07:00:32.553Z,5.30
2022-09-18T07:03:01.187Z,5.50
2022-09-18T07:05:30.459Z,5.60
2022-09-18T07:07:57.366Z,5.00
2022-09-18T07:10:24.620Z,4.40
2022-09-18T07:12:58.936Z,5.70
2022-09-18T07:15:26.596Z,4.40
2022-09-18T07:17:58.599Z,4.60
2022-09-18T07:20:26.124Z,3.20
2022-09-18T07:22:55.221Z,3.20
2022-09-18T07:25:22.272Z,2.70
2022-09-18T07:27:49.441Z,2.00
2022-09-18T07:30:17.235Z,2.20
2022-09-18T07:32:43.851Z,2.30
2022-09-18T07:35:11.045Z,2.60
2022-09-18T07:37:38.518Z,1.80
2022-09-18T07:40:09.152Z,1.90
2022-09-18T07:42:35.995Z,1.90
2022-09-18T07:45:03.063Z,2.10
2022-09-18T07:47:29.732Z,2.10
2022-09-18T07:49:56.207Z,1.80
2022-09-18T07:52:22.772Z,1.40
2022-09-18T07:54:49.316Z,1.60
2022-09-18T07:57:15.603Z,1.50
2022-09-18T07:59:42.068Z,1.20
2022-09-18T08:02:10.691Z,1.30
2022-09-18T08:04:37.584Z,1.40
2022-09-18T08:07:04.531Z,1.30
2022-09-18T08:09:31.010Z,1.10
2022-09-18T08:11:57.956Z,1.20
2022-09-18T08:14:28.728Z,1.20
2022-09-18T08:16:55.664Z,1.50
2022-09-18T08:19:22.262Z,1.60
2022-09-18T08:21:49.091Z,1.30
2022-09-18T08:24:16.945Z,1.30
2022-09-18T08:26:44.571Z,1.20
2022-09-18T08:29:18.795Z,1.00
2022-09-18T08:31:47.205Z,1.40
2022-09-18T08:34:14.762Z,1.10
2022-09-18T08:36:42.059Z,1.10
2022-09-18T08:39:10.326Z,1.00
2022-09-18T08:42:07.762Z,1.10
2022-09-18T08:45:17.103Z,0.90
2022-09-18T08:47:51.144Z,1.00
2022-09-18T08:50:35.095Z,0.90
2022-09-18T08:53:20.888Z,1.00
2022-09-18T08:55:49.696Z,0.90
2022-09-18T08:58:23.132Z,0.80
2022-09-18T09:00:59.432Z,0.90
2022-09-18T09:04:00.384Z,1.20
2022-09-18T09:06:42.444Z,1.20
2022-09-18T09:09:32.202Z,0.90
2022-09-18T09:12:01.976Z,1.30
2022-09-18T09:15:31.821Z,1.40
2022-09-18T09:18:16.451Z,1.10
2022-09-18T09:21:11.673Z,1.20
2022-09-18T09:24:01.318Z,1.30
2022-09-18T09:26:34.219Z,1.40
2022-09-18T09:29:39.084Z,1.20
2022-09-18T09:32:27.976Z,1.50
2022-09-18T09:35:21.323Z,1.90
2022-09-18T09:37:48.625Z,1.20
2022-09-18T09:40:22.076Z,1.00
2022-09-18T09:43:00.605Z,1.10
2022-09-18T09:45:33.353Z,2.60
2022-09-18T09:48:32.253Z,1.10
2022-09-18T09:51:26.449Z,1.10
2022-09-18T09:54:24.031Z,1.60
2022-09-18T10:01:00.639Z,1.20
2022-09-18T10:04:02.975Z,1.30
2022-09-18T10:07:18.495Z,1.10
2022-09-18T10:10:12.420Z,1.30
2022-09-18T10:13:00.104Z,1.50
2022-09-18T10:15:41.713Z,1.90
2022-09-18T10:18:24.876Z,1.50
2022-09-18T10:22:00.594Z,1.40
2022-09-18T10:24:34.809Z,1.70
2022-09-18T10:27:17.553Z,2.10
2022-09-18T10:29:58.453Z,1.50
2022-09-18T10:32:58.443Z,1.70
2022-09-18T10:35:49.326Z,1.60
2022-09-18T10:38:30.031Z,2.00
2022-09-18T10:41:13.971Z,1.50
2022-09-18T10:44:15.003Z,1.60
2022-09-18T10:47:28.714Z,2.20
2022-09-18T10:49:59.088Z,2.00
2022-09-18T10:52:42.496Z,1.90
2022-09-18T10:55:13.852Z,1.70
2022-09-18T10:57:45.428Z,1.60
2022-09-18T11:00:13.354Z,1.40
2022-09-18T11:02:46.577Z,1.50
2022-09-18T11:05:47.593Z,1.50
2022-09-18T11:08:19.758Z,2.30
2022-09-18T11:10:55.855Z,2.70
2022-09-18T11:13:27.083Z,2.90
2022-09-18T11:15:59.078Z,2.30
2022-09-18T11:18:31.731Z,1.90
2022-09-18T11:21:08.939Z,2.50
2022-09-18T11:23:38.180Z,2.40
2022-09-18T11:26:35.676Z,1.90
2022-09-18T11:29:31.619Z,1.40
2022-09-18T11:32:06.775Z,1.50
2022-09-18T11:34:47.830Z,1.50
2022-09-18T11:37:31.069Z,2.10
2022-09-18T11:40:26.689Z,1.40
2022-09-18T11:42:55.152Z,1.40
2022-09-18T11:45:52.869Z,1.60
2022-09-18T11:48:42.014Z,1.30
2022-09-18T11:51:16.678Z,1.60
2022-09-18T11:54:00.450Z,1.90
2022-09-18T11:56:48.233Z,1.80
2022-09-18T11:59:43.519Z,1.60
2022-09-18T12:02:48.031Z,1.30
2022-09-18T12:05:28.091Z,1.60
2022-09-18T12:08:36.851Z,1.70
2022-09-18T12:12:24.537Z,1.60
2022-09-18T12:15:41.705Z,1.60
2022-09-18T12:18:33.875Z,1.50
2022-09-18T12:21:12.610Z,1.20
2022-09-18T12:23:40.564Z,1.30
2022-09-18T12:26:15.377Z,1.60
2022-09-18T12:29:12.549Z,2.90
2022-09-18T12:32:15.650Z,2.50
2022-09-18T12:35:13.761Z,1.80
2022-09-18T12:37:53.275Z,2.00
2022-09-18T12:40:49.140Z,1.70
2022-09-18T12:43:47.101Z,1.60
2022-09-18T12:46:41.039Z,1.90
2022-09-18T12:49:30.129Z,1.40
2022-09-18T12:52:18.521Z,2.60
2022-09-18T12:54:48.158Z,1.60
2022-09-18T12:57:43.812Z,1.80
2022-09-18T13:00:18.350Z,1.50
2022-09-18T13:03:13.851Z,1.60
2022-09-18T13:05:54.302Z,1.60
2022-09-18T13:08:33.192Z,1.30
2022-09-18T13:11:15.072Z,1.60
2022-09-18T13:13:58.749Z,1.40
2022-09-18T13:16:55.313Z,1.40
2022-09-18T13:19:28.491Z,1.50
2022-09-18T13:22:04.367Z,1.70
2022-09-18T13:25:57.786Z,1.30
2022-09-18T13:32:54.026Z,1.60
2022-09-18T13:36:16.831Z,1.40
2022-09-18T13:43:58.102Z,1.50
2022-09-18T13:46:50.544Z,1.20
2022-09-18T13:48:51.260Z,1.40
2022-09-18T13:49:26.006Z,1.30
2022-09-18T13:51:55.869Z,1.50
2022-09-18T13:54:29.833Z,1.40
2022-09-18T13:57:03.793Z,1.20
2022-09-18T14:00:26.685Z,1.20
2022-09-18T14:03:07.590Z,1.00
2022-09-18T14:05:44.097Z,1.00
2022-09-18T14:08:26.289Z,1.80
2022-09-18T14:11:14.922Z,1.10
2022-09-18T14:13:52.006Z,1.20
2022-09-18T14:16:23.310Z,1.00
2022-09-18T14:19:21.812Z,1.10
2022-09-18T14:21:52.032Z,1.10
2022-09-18T14:24:49.537Z,1.10
2022-09-18T14:27:56.879Z,1.40
2022-09-18T14:30:30.849Z,1.30
2022-09-18T14:33:11.101Z,1.00
2022-09-18T14:36:11.771Z,1.30
2022-09-18T14:41:19.004Z,1.40
2022-09-18T14:44:01.184Z,1.30
2022-09-18T14:46:28.648Z,1.20
2022-09-18T14:48:56.078Z,1.00
2022-09-18T14:51:27.777Z,0.90
2022-09-18T14:53:57.507Z,1.40
2022-09-18T14:56:38.516Z,1.00
2022-09-18T14:59:16.281Z,1.10
2022-09-18T15:01:45.006Z,1.20
2022-09-18T15:04:19.702Z,1.30
2022-09-18T15:06:51.740Z,1.20
2022-09-18T15:09:27.197Z,1.20
2022-09-18T15:12:03.192Z,1.20
2022-09-18T15:14:45.390Z,1.10
2022-09-18T15:17:42.585Z,1.10
2022-09-18T15:20:25.860Z,1.10
2022-09-18T15:22:56.067Z,1.70
2022-09-18T15:25:37.062Z,1.20
2022-09-18T15:28:06.434Z,1.10
2022-09-18T15:30:37.562Z,1.10
2022-09-18T15:33:21.682Z,0.80
2022-09-18T15:35:52.858Z,1.00
2022-09-18T15:38:26.378Z,0.70
2022-09-18T15:40:56.835Z,0.90
2022-09-18T15:43:29.190Z,0.60
2022-09-18T15:46:05.886Z,0.40
2022-09-18T15:48:38.964Z,0.80
2022-09-18T15:51:15.938Z,0.60
2022-09-18T15:54:13.770Z,0.80
2022-09-18T15:56:59.007Z,1.40
2022-09-18T15:59:32.635Z,8.90
2022-09-18T16:02:07.567Z,22.40
2022-09-18T16:04:35.538Z,11.40
2022-09-18T16:07:57.268Z,6.60
2022-09-18T16:13:56.010Z,1.30
2022-09-18T16:16:29.426Z,1.10
2022-09-18T16:19:10.813Z,1.20
2022-09-18T16:21:44.604Z,1.10
2022-09-18T16:24:31.169Z,1.30
2022-09-18T16:27:07.474Z,1.90
2022-09-18T16:29:35.203Z,1.00
2022-09-18T16:32:02.156Z,1.20
2022-09-18T16:34:30.000Z,1.30
2022-09-18T16:36:56.862Z,1.20
2022-09-18T16:39:26.571Z,1.30
2022-09-18T16:42:01.443Z,1.10
2022-09-18T16:44:33.024Z,1.20
2022-09-18T16:47:11.585Z,1.10
2022-09-18T16:49:55.933Z,1.40
2022-09-18T16:52:35.485Z,1.10
2022-09-18T16:55:03.420Z,1.30
2022-09-18T16:57:31.135Z,1.70
2022-09-18T17:01:03.811Z,2.40
2022-09-18T17:03:59.909Z,1.60
2022-09-18T17:06:26.842Z,1.30
2022-09-18T17:08:55.874Z,2.90
2022-09-18T17:11:46.178Z,2.40
2022-09-18T17:14:13.086Z,3.80
2022-09-18T17:16:48.195Z,3.90
2022-09-18T17:19:15.513Z,6.50
2022-09-18T17:21:45.196Z,2.90
2022-09-18T17:24:12.922Z,2.40
2022-09-18T17:26:41.329Z,1.90
2022-09-18T17:29:11.527Z,1.60
2022-09-18T17:31:40.397Z,1.80
2022-09-18T17:34:07.327Z,2.40
2022-09-18T17:36:36.385Z,2.70
2022-09-18T17:39:04.807Z,2.00
2022-09-18T17:41:33.233Z,2.10
2022-09-18T17:44:00.647Z,2.60
2022-09-18T17:46:27.371Z,1.60
2022-09-18T17:48:56.234Z,1.50
2022-09-18T17:51:28.177Z,2.20
2022-09-18T17:57:49.337Z,1.60
2022-09-18T18:00:18.652Z,2.10
2022-09-18T18:02:46.800Z,2.00
2022-09-18T18:05:14.446Z,1.90
2022-09-18T18:07:41.148Z,1.80
2022-09-18T18:10:08.585Z,1.70
2022-09-18T18:12:36.475Z,1.50
2022-09-18T18:15:04.651Z,1.90
2022-09-18T18:17:35.642Z,2.10
2022-09-18T18:20:05.153Z,2.80
2022-09-18T18:22:32.194Z,3.30
2022-09-18T18:25:01.230Z,3.50
2022-09-18T18:27:33.091Z,2.00
2022-09-18T18:30:03.143Z,2.50
2022-09-18T18:32:34.435Z,1.70
2022-09-18T18:35:09.417Z,2.50
2022-09-18T18:37:47.972Z,2.70
2022-09-18T18:40:15.351Z,3.70
2022-09-18T18:42:42.250Z,2.80
2022-09-18T18:45:10.425Z,3.10
2022-09-18T18:47:38.299Z,2.90
2022-09-18T18:50:06.341Z,3.00
2022-09-18T18:52:32.934Z,3.20
2022-09-18T18:55:04.003Z,2.60
2022-09-18T18:57:30.879Z,2.90
2022-09-18T18:59:57.739Z,2.40
2022-09-18T19:02:24.415Z,2.00
2022-09-18T19:04:52.587Z,2.40
2022-09-18T19:07:19.940Z,2.90
2022-09-18T19:09:46.383Z,2.40
2022-09-18T19:12:12.921Z,2.60
2022-09-18T19:14:42.231Z,2.40
2022-09-18T19:17:18.169Z,2.30
2022-09-18T19:19:55.605Z,2.00
2022-09-18T19:22:26.212Z,2.40
2022-09-18T19:24:53.444Z,2.20
2022-09-18T19:27:24.413Z,2.20
2022-09-18T19:30:02.955Z,2.00
2022-09-18T19:32:37.109Z,2.00
2022-09-18T19:35:08.121Z,1.90
2022-09-18T19:37:35.955Z,2.00
2022-09-18T19:40:03.768Z,2.40
2022-09-18T19:42:31.490Z,1.90
2022-09-18T19:45:01.814Z,2.10
2022-09-18T19:47:33.365Z,2.30
2022-09-18T19:50:02.819Z,2.20
2022-09-18T19:52:29.655Z,1.80
2022-09-18T19:54:58.403Z,2.40
2022-09-18T19:57:27.380Z,2.00
2022-09-18T19:59:56.634Z,2.20
2022-09-18T20:02:26.673Z,2.20
2022-09-18T20:04:55.741Z,2.30
2022-09-18T20:07:24.161Z,2.30
2022-09-18T20:09:51.137Z,2.40
2022-09-18T20:12:20.002Z,2.70
2022-09-18T20:14:47.170Z,2.60
2022-09-18T20:17:15.432Z,2.20
2022-09-18T20:19:42.404Z,2.30
2022-09-18T20:22:09.106Z,2.50
2022-09-18T20:24:35.450Z,2.00
2022-09-18T20:27:01.907Z,2.10
2022-09-18T20:29:28.656Z,1.80
2022-09-18T20:31:55.370Z,1.60
2022-09-18T20:34:22.790Z,1.70
2022-09-18T20:36:51.382Z,2.30
2022-09-18T20:39:18.277Z,1.60
2022-09-18T20:41:44.697Z,1.70
2022-09-18T20:44:11.198Z,1.70
2022-09-18T20:46:39.840Z,1.70
2022-09-18T20:49:07.252Z,1.80
2022-09-18T20:51:35.315Z,1.50
2022-09-18T20:54:04.489Z,1.80
2022-09-18T20:56:43.845Z,1.60
2022-09-18T20:59:12.887Z,1.60
2022-09-18T21:01:41.251Z,1.70
2022-09-18T21:04:16.514Z,1.80
2022-09-18T21:06:55.385Z,1.90
2022-09-18T21:09:25.879Z,1.60
2022-09-18T21:11:52.384Z,1.60
2022-09-18T21:14:20.451Z,1.90
2022-09-18T21:16:47.499Z,1.90
2022-09-18T21:19:18.709Z,1.90
2022-09-18T21:21:47.169Z,1.70
2022-09-18T21:24:18.492Z,1.80
2022-09-18T21:26:47.714Z,1.70
2022-09-18T21:29:24.089Z,2.10
2022-09-18T21:32:01.305Z,1.80
2022-09-18T21:34:36.943Z,1.80
2022-09-18T21:37:17.630Z,2.10
2022-09-18T21:40:13.577Z,1.50
2022-09-18T21:42:47.021Z,1.80
2022-09-18T21:45:23.260Z,1.50
2022-09-18T21:47:50.121Z,1.70
2022-09-18T21:50:28.377Z,1.50
2022-09-18T21:52:55.029Z,1.70
2022-09-18T21:55:58.791Z,1.60
2022-09-18T21:58:55.743Z,1.50
2022-09-18T22:02:09.636Z,1.60
2022-09-18T22:04:55.320Z,1.60
2022-09-18T22:08:07.667Z,1.70
2022-09-18T22:10:39.637Z,1.80
2022-09-18T22:13:06.172Z,1.40
2022-09-18T22:15:32.826Z,1.40
2022-09-18T22:17:59.361Z,1.20
2022-09-18T22:20:25.841Z,2.40
2022-09-18T22:22:52.313Z,1.80
2022-09-18T22:25:19.985Z,1.30
2022-09-18T22:27:46.513Z,1.50
2022-09-18T22:30:14.214Z,1.80
2022-09-18T22:32:40.914Z,1.30
2022-09-18T22:35:08.378Z,1.70
2022-09-18T22:37:35.211Z,1.40
2022-09-18T22:40:02.179Z,1.70
2022-09-18T22:42:29.669Z,1.50
2022-09-18T22:44:56.064Z,1.60
2022-09-18T22:47:22.767Z,1.70
2022-09-18T22:49:49.115Z,1.50
2022-09-18T22:52:22.224Z,1.70
2022-09-18T22:54:48.606Z,1.50
2022-09-18T22:57:15.494Z,1.80
2022-09-18T22:59:41.841Z,1.60
2022-09-18T23:02:08.386Z,1.60
2022-09-18T23:04:36.098Z,1.50
2022-09-18T23:07:03.191Z,1.70
2022-09-18T23:09:29.934Z,1.60
2022-09-18T23:11:57.395Z,1.70
2022-09-18T23:14:27.975Z,1.80
2022-09-18T23:16:56.510Z,1.80
2022-09-18T23:19:29.271Z,1.60
2022-09-18T23:24:27.432Z,1.70
2022-09-18T23:26:57.017Z,1.60
2022-09-18T23:29:25.256Z,1.90
2022-09-18T23:31:54.513Z,1.80
2022-09-18T23:34:23.695Z,1.90
2022-09-18T23:36:59.489Z,1.70
2022-09-18T23:39:33.207Z,1.80
2022-09-18T23:42:01.565Z,1.80
2022-09-18T23:44:30.274Z,1.90
2022-09-18T23:46:57.259Z,2.50
2022-09-18T23:49:23.894Z,1.80
2022-09-18T23:51:53.339Z,2.20
2022-09-18T23:54:23.028Z,1.90
2022-09-18T23:56:49.859Z,1.80
2022-09-18T23:59:22.582Z,2.00
